Time,TemperatureF,DewpointF,PressureIn,WindDirection,WindDirectionDegrees,WindSpeedMPH,WindSpeedGustMPH,Humidity,HourlyPrecipIn,Conditions,Clouds,dailyrainin,SoftwareType,DateUTC
2013-01-02 00:08:00,18.8,13.1,30.24,NNW,332,1.0,3.0,78,0.00,,,0.00,Wunderground v.1.13,2013-01-02 06:08:00,
2013-01-02 00:13:00,18.6,12.9,30.24,NNW,338,1.0,1.0,78,0.00,,,0.00,Wunderground v.1.13,2013-01-02 06:13:00,
2013-01-02 00:23:00,18.5,12.8,30.24,NNW,338,1.0,1.0,78,0.00,,,0.00,Wunderground v.1.13,2013-01-02 06:23:00,
2013-01-02 00:28:00,18.4,12.7,30.24,NNW,338,1.0,1.0,78,0.00,,,0.00,Wunderground v.1.13,2013-01-02 06:28:00,
2013-01-02 00:38:00,18.3,12.6,30.24,NNW,338,0.0,0.0,78,0.00,,,0.00,Wunderground v.1.13,2013-01-02 06:38:00,
2013-01-02 00:43:00,18.2,12.5,30.25,NNW,337,1.0,2.0,78,0.00,,,0.00,Wunderground v.1.13,2013-01-02 06:43:00,
2013-01-02 00:53:00,18.1,12.4,30.25,NNW,337,0.0,1.0,78,0.00,,,0.00,Wunderground v.1.13,2013-01-02 06:53:00,
2013-01-02 01:03:00,18.2,12.2,30.25,NNW,334,1.0,2.0,77,0.00,,,0.00,Wunderground v.1.13,2013-01-02 07:03:00,
2013-01-02 01:13:00,18.1,12.1,30.25,NNW,334,0.0,0.0,77,0.00,,,0.00,Wunderground v.1.13,2013-01-02 07:13:00,
2013-01-02 01:18:00,18.0,12.0,30.25,NNW,334,0.0,0.0,77,0.00,,,0.00,Wunderground v.1.13,2013-01-02 07:18:00,
2013-01-02 01:28:00,17.9,11.9,30.25,NNW,334,0.0,0.0,77,0.00,,,0.00,Wunderground v.1.13,2013-01-02 07:28:00,
2013-01-02 01:33:00,17.8,11.8,30.25,NNW,334,0.0,0.0,77,0.00,,,0.00,Wunderground v.1.13,2013-01-02 07:33:00,
2013-01-02 01:43:00,17.7,12.0,30.26,NNW,334,0.0,0.0,78,0.00,,,0.00,Wunderground v.1.13,2013-01-02 07:43:00,
2013-01-02 01:53:00,17.5,11.8,30.26,NNW,334,0.0,0.0,78,0.00,,,0.00,Wunderground v.1.13,2013-01-02 07:53:00,
2013-01-02 02:03:00,17.4,12.0,30.26,NNW,334,0.0,0.0,79,0.00,,,0.00,Wunderground v.1.13,2013-01-02 08:03:00,
2013-01-02 02:13:00,17.2,11.8,30.27,NNW,334,0.0,0.0,79,0.00,,,0.00,Wunderground v.1.13,2013-01-02 08:13:00,
2013-01-02 02:18:00,17.2,11.8,30.26,NNW,334,0.0,0.0,79,0.00,,,0.00,Wunderground v.1.13,2013-01-02 08:18:00,
2013-01-02 02:28:00,16.9,11.5,30.26,NNW,334,0.0,0.0,79,0.00,,,0.00,Wunderground v.1.13,2013-01-02 08:28:00,
2013-01-02 02:33:00,16.7,11.3,30.26,NNW,334,0.0,0.0,79,0.00,,,0.00,Wunderground v.1.13,2013-01-02 08:33:00,
2013-01-02 02:43:00,16.5,11.1,30.26,NNW,334,0.0,0.0,79,0.00,,,0.00,Wunderground v.1.13,2013-01-02 08:43:00,
2013-01-02 02:48:00,16.3,11.2,30.26,NNW,334,0.0,0.0,80,0.00,,,0.00,Wunderground v.1.13,2013-01-02 08:48:00,
2013-01-02 02:53:00,16.2,11.1,30.26,NNW,334,0.0,0.0,80,0.00,,,0.00,Wunderground v.1.13,2013-01-02 08:53:00,
2013-01-02 03:03:00,16.0,10.9,30.26,NNW,334,0.0,0.0,80,0.00,,,0.00,Wunderground v.1.13,2013-01-02 09:03:00,
2013-01-02 03:13:00,15.7,10.6,30.26,NNW,334,0.0,0.0,80,0.00,,,0.00,Wunderground v.1.13,2013-01-02 09:13:00,
2013-01-02 03:23:00,15.5,10.7,30.26,NNW,334,0.0,0.0,81,0.00,,,0.00,Wunderground v.1.13,2013-01-02 09:23:00,
2013-01-02 03:28:00,15.2,10.4,30.25,NNW,334,0.0,0.0,81,0.00,,,0.00,Wunderground v.1.13,2013-01-02 09:28:00,
2013-01-02 03:38:00,14.8,10.0,30.25,NNW,334,0.0,0.0,81,0.00,,,0.00,Wunderground v.1.13,2013-01-02 09:38:00,
2013-01-02 03:48:00,14.4,9.9,30.25,NNW,334,0.0,0.0,82,0.00,,,0.00,Wunderground v.1.13,2013-01-02 09:48:00,
2013-01-02 03:53:00,14.3,9.8,30.25,NNW,334,0.0,0.0,82,0.00,,,0.00,Wunderground v.1.13,2013-01-02 09:53:00,
2013-01-02 03:58:00,14.4,9.9,30.25,NNW,334,0.0,0.0,82,0.00,,,0.00,Wunderground v.1.13,2013-01-02 09:58:00,
2013-01-02 04:08:00,14.1,9.6,30.25,NNW,334,0.0,0.0,82,0.00,,,0.00,Wunderground v.1.13,2013-01-02 10:08:00,
2013-01-02 04:18:00,13.9,9.7,30.25,NNW,334,0.0,0.0,83,0.00,,,0.00,Wunderground v.1.13,2013-01-02 10:18:00,
2013-01-02 04:28:00,13.7,9.5,30.25,NNW,334,0.0,0.0,83,0.00,,,0.00,Wunderground v.1.13,2013-01-02 10:28:00,
2013-01-02 04:33:00,13.1,8.9,30.25,NNW,334,0.0,0.0,83,0.00,,,0.00,Wunderground v.1.13,2013-01-02 10:33:00,
2013-01-02 04:43:00,12.4,8.2,30.25,NNW,334,0.0,0.0,83,0.00,,,0.00,Wunderground v.1.13,2013-01-02 10:43:00,
2013-01-02 04:53:00,12.3,8.1,30.25,NNW,334,0.0,0.0,83,0.00,,,0.00,Wunderground v.1.13,2013-01-02 10:53:00,
2013-01-02 05:03:00,12.1,8.2,30.25,NNW,334,0.0,0.0,84,0.00,,,0.00,Wunderground v.1.13,2013-01-02 11:03:00,
2013-01-02 05:13:00,12.1,8.2,30.25,NNW,334,0.0,0.0,84,0.00,,,0.00,Wunderground v.1.13,2013-01-02 11:13:00,
2013-01-02 05:23:00,12.0,8.1,30.26,NNW,334,0.0,0.0,84,0.00,,,0.00,Wunderground v.1.13,2013-01-02 11:23:00,
2013-01-02 05:33:00,11.7,7.8,30.27,NNW,334,0.0,0.0,84,0.00,,,0.00,Wunderground v.1.13,2013-01-02 11:33:00,
2013-01-02 05:43:00,10.8,6.9,30.27,NNW,334,0.0,0.0,84,0.00,,,0.00,Wunderground v.1.13,2013-01-02 11:43:00,
2013-01-02 05:53:00,10.5,6.9,30.28,NNW,334,0.0,0.0,85,0.00,,,0.00,Wunderground v.1.13,2013-01-02 11:53:00,
2013-01-02 06:03:00,10.4,6.8,30.28,NNW,334,0.0,0.0,85,0.00,,,0.00,Wunderground v.1.13,2013-01-02 12:03:00,
2013-01-02 06:08:00,10.3,6.7,30.28,NNW,334,0.0,0.0,85,0.00,,,0.00,Wunderground v.1.13,2013-01-02 12:08:00,
2013-01-02 06:13:00,10.1,6.5,30.28,NNW,334,0.0,0.0,85,0.00,,,0.00,Wunderground v.1.13,2013-01-02 12:13:00,
2013-01-02 06:23:00,10.2,6.6,30.28,NNW,334,0.0,0.0,85,0.00,,,0.00,Wunderground v.1.13,2013-01-02 12:23:00,
2013-01-02 06:33:00,11.2,7.6,30.28,NNW,334,0.0,0.0,85,0.00,,,0.00,Wunderground v.1.13,2013-01-02 12:33:00,
2013-01-02 06:43:00,10.8,7.2,30.28,NNW,334,0.0,0.0,85,0.00,,,0.00,Wunderground v.1.13,2013-01-02 12:43:00,
2013-01-02 06:53:00,10.5,6.9,30.29,NNW,334,0.0,0.0,85,0.00,,,0.00,Wunderground v.1.13,2013-01-02 12:53:00,
2013-01-02 06:58:00,10.4,6.8,30.29,NNW,334,0.0,0.0,85,0.00,,,0.00,Wunderground v.1.13,2013-01-02 12:58:00,
2013-01-02 07:08:00,10.4,6.8,30.29,NNW,334,0.0,0.0,85,0.00,,,0.00,Wunderground v.1.13,2013-01-02 13:08:00,
2013-01-02 07:18:00,10.5,6.9,30.29,NNW,334,0.0,0.0,85,0.00,,,0.00,Wunderground v.1.13,2013-01-02 13:18:00,
2013-01-02 07:28:00,10.9,7.5,30.28,NNW,334,0.0,0.0,86,0.00,,,0.00,Wunderground v.1.13,2013-01-02 13:28:00,
2013-01-02 07:33:00,11.2,7.8,30.28,NNW,334,0.0,0.0,86,0.00,,,0.00,Wunderground v.1.13,2013-01-02 13:33:00,
2013-01-02 07:38:00,11.5,8.1,30.28,NNW,334,0.0,0.0,86,0.00,,,0.00,Wunderground v.1.13,2013-01-02 13:38:00,
2013-01-02 07:48:00,12.3,8.9,30.28,NNW,334,0.0,0.0,86,0.00,,,0.00,Wunderground v.1.13,2013-01-02 13:48:00,
2013-01-02 07:58:00,12.2,8.8,30.29,NNW,334,0.0,0.0,86,0.00,,,0.00,Wunderground v.1.13,2013-01-02 13:58:00,
2013-01-02 08:03:00,12.7,9.3,30.29,NNW,334,0.0,0.0,86,0.00,,,0.00,Wunderground v.1.13,2013-01-02 14:03:00,
2013-01-02 08:13:00,13.7,10.3,30.29,NNW,334,0.0,0.0,86,0.00,,,0.00,Wunderground v.1.13,2013-01-02 14:13:00,
2013-01-02 08:23:00,14.5,10.8,30.29,NNW,334,0.0,0.0,85,0.00,,,0.00,Wunderground v.1.13,2013-01-02 14:23:00,
2013-01-02 08:28:00,14.8,11.1,30.29,NNW,334,0.0,2.0,85,0.00,,,0.00,Wunderground v.1.13,2013-01-02 14:28:00,
2013-01-02 08:38:00,16.4,12.9,30.29,NNW,334,1.0,1.0,86,0.00,,,0.00,Wunderground v.1.13,2013-01-02 14:38:00,
2013-01-02 08:43:00,16.9,13.2,30.30,NNW,334,1.0,1.0,85,0.00,,,0.00,Wunderground v.1.13,2013-01-02 14:43:00,
2013-01-02 08:53:00,17.7,13.7,30.30,NNW,334,1.0,1.0,84,0.00,,,0.00,Wunderground v.1.13,2013-01-02 14:53:00,
2013-01-02 08:58:00,18.5,14.2,30.30,NNW,334,0.0,0.0,83,0.00,,,0.00,Wunderground v.1.13,2013-01-02 14:58:00,
2013-01-02 09:03:00,18.8,14.2,30.31,NNW,334,0.0,0.0,82,0.00,,,0.00,Wunderground v.1.13,2013-01-02 15:03:00,
2013-01-02 09:13:00,20.0,14.8,30.30,NNW,334,0.0,0.0,80,0.00,,,0.00,Wunderground v.1.13,2013-01-02 15:13:00,
2013-01-02 09:18:00,20.2,14.4,30.30,NNW,334,0.0,0.0,78,0.00,,,0.00,Wunderground v.1.13,2013-01-02 15:18:00,
2013-01-02 09:23:00,19.7,13.7,30.30,NNW,334,0.0,0.0,77,0.00,,,0.00,Wunderground v.1.13,2013-01-02 15:23:00,
2013-01-02 09:33:00,18.8,12.5,30.29,NNW,336,0.0,0.0,76,0.00,,,0.00,Wunderground v.1.13,2013-01-02 15:33:00,
2013-01-02 09:43:00,18.4,12.1,30.29,NNW,336,0.0,0.0,76,0.00,,,0.00,Wunderground v.1.13,2013-01-02 15:43:00,
2013-01-02 09:48:00,18.8,12.5,30.30,NNW,336,0.0,0.0,76,0.00,,,0.00,Wunderground v.1.13,2013-01-02 15:48:00,
2013-01-02 09:58:00,19.1,12.2,30.30,ESE,107,0.0,0.0,74,0.00,,,0.00,Wunderground v.1.13,2013-01-02 15:58:00,
2013-01-02 10:08:00,18.9,12.0,30.29,ESE,107,0.0,0.0,74,0.00,,,0.00,Wunderground v.1.13,2013-01-02 16:08:00,
2013-01-02 10:18:00,18.5,11.6,30.29,ESE,107,0.0,0.0,74,0.00,,,0.00,Wunderground v.1.13,2013-01-02 16:18:00,
2013-01-02 10:23:00,18.6,12.0,30.30,ESE,107,0.0,0.0,75,0.00,,,0.00,Wunderground v.1.13,2013-01-02 16:23:00,
2013-01-02 10:33:00,19.4,12.5,30.29,ESE,107,0.0,0.0,74,0.00,,,0.00,Wunderground v.1.13,2013-01-02 16:33:00,
2013-01-02 10:43:00,20.3,13.0,30.29,ESE,107,0.0,0.0,73,0.00,,,0.00,Wunderground v.1.13,2013-01-02 16:43:00,
2013-01-02 10:53:00,20.3,12.7,30.29,ESE,107,0.0,0.0,72,0.00,,,0.00,Wunderground v.1.13,2013-01-02 16:53:00,
2013-01-02 10:58:00,20.5,12.6,30.29,ESE,107,0.0,0.0,71,0.00,,,0.00,Wunderground v.1.13,2013-01-02 16:58:00,
2013-01-02 11:03:00,20.9,13.0,30.29,ESE,107,0.0,0.0,71,0.00,,,0.00,Wunderground v.1.13,2013-01-02 17:03:00,
2013-01-02 11:13:00,21.4,12.5,30.29,ESE,107,0.0,0.0,68,0.00,,,0.00,Wunderground v.1.13,2013-01-02 17:13:00,
2013-01-02 11:23:00,22.2,12.9,30.28,ESE,107,0.0,0.0,67,0.00,,,0.00,Wunderground v.1.13,2013-01-02 17:23:00,
2013-01-02 11:33:00,21.7,12.1,30.28,ESE,107,0.0,0.0,66,0.00,,,0.00,Wunderground v.1.13,2013-01-02 17:33:00,
2013-01-02 11:38:00,21.3,12.0,30.27,ESE,107,0.0,0.0,67,0.00,,,0.00,Wunderground v.1.13,2013-01-02 17:38:00,
2013-01-02 11:48:00,21.4,12.8,30.27,ESE,107,0.0,0.0,69,0.00,,,0.00,Wunderground v.1.13,2013-01-02 17:48:00,
2013-01-02 11:53:00,21.6,13.0,30.27,ESE,107,0.0,0.0,69,0.00,,,0.00,Wunderground v.1.13,2013-01-02 17:53:00,
2013-01-02 12:03:00,21.5,12.9,30.26,SE,136,2.0,2.0,69,0.00,,,0.00,Wunderground v.1.13,2013-01-02 18:03:00,
2013-01-02 12:13:00,22.0,13.0,30.26,SE,136,0.0,0.0,68,0.00,,,0.00,Wunderground v.1.13,2013-01-02 18:13:00,
2013-01-02 12:23:00,22.6,13.3,30.26,SE,136,0.0,0.0,67,0.00,,,0.00,Wunderground v.1.13,2013-01-02 18:23:00,
2013-01-02 12:28:00,22.5,12.8,30.26,SE,136,0.0,0.0,66,0.00,,,0.00,Wunderground v.1.13,2013-01-02 18:28:00,
2013-01-02 12:38:00,22.6,12.9,30.25,SE,136,0.0,0.0,66,0.00,,,0.00,Wunderground v.1.13,2013-01-02 18:38:00,
2013-01-02 12:43:00,22.4,13.1,30.24,SE,137,0.0,0.0,67,0.00,,,0.00,Wunderground v.1.13,2013-01-02 18:43:00,
2013-01-02 12:53:00,22.4,13.1,30.24,SE,142,0.0,0.0,67,0.00,,,0.00,Wunderground v.1.13,2013-01-02 18:53:00,
2013-01-02 13:03:00,22.7,13.4,30.24,SE,142,0.0,0.0,67,0.00,,,0.00,Wunderground v.1.13,2013-01-02 19:03:00,
2013-01-02 13:13:00,23.5,13.8,30.23,SE,142,0.0,0.0,66,0.00,,,0.00,Wunderground v.1.13,2013-01-02 19:13:00,
2013-01-02 13:18:00,24.2,14.1,30.23,SE,142,0.0,0.0,65,0.00,,,0.00,Wunderground v.1.13,2013-01-02 19:18:00,
2013-01-02 13:28:00,25.1,15.0,30.23,SE,142,0.0,0.0,65,0.00,,,0.00,Wunderground v.1.13,2013-01-02 19:28:00,
2013-01-02 13:38:00,24.8,14.0,30.23,SE,142,0.0,0.0,63,0.00,,,0.00,Wunderground v.1.13,2013-01-02 19:38:00,
2013-01-02 13:48:00,25.1,14.3,30.23,SE,142,0.0,0.0,63,0.00,,,0.00,Wunderground v.1.13,2013-01-02 19:48:00,
2013-01-02 13:53:00,25.6,14.4,30.22,SE,142,0.0,0.0,62,0.00,,,0.00,Wunderground v.1.13,2013-01-02 19:53:00,
2013-01-02 14:03:00,27.1,15.0,30.23,SE,142,0.0,0.0,60,0.00,,,0.00,Wunderground v.1.13,2013-01-02 20:03:00,
2013-01-02 14:08:00,28.1,16.0,30.22,SE,142,0.0,0.0,60,0.00,,,0.00,Wunderground v.1.13,2013-01-02 20:08:00,
2013-01-02 14:18:00,30.7,16.8,30.22,SE,142,0.0,0.0,56,0.00,,,0.00,Wunderground v.1.13,2013-01-02 20:18:00,
2013-01-02 14:23:00,31.5,15.4,30.23,SE,142,0.0,0.0,51,0.00,,,0.00,Wunderground v.1.13,2013-01-02 20:23:00,
2013-01-02 14:33:00,30.2,14.2,30.23,SE,142,0.0,0.0,51,0.00,,,0.00,Wunderground v.1.13,2013-01-02 20:33:00,
2013-01-02 14:43:00,31.5,13.6,30.23,SE,142,0.0,0.0,47,0.00,,,0.00,Wunderground v.1.13,2013-01-02 20:43:00,
2013-01-02 14:53:00,28.9,12.1,30.23,SE,142,0.0,0.0,49,0.00,,,0.00,Wunderground v.1.13,2013-01-02 20:53:00,
2013-01-02 15:03:00,27.2,11.9,30.23,SE,142,0.0,0.0,52,0.00,,,0.00,Wunderground v.1.13,2013-01-02 21:03:00,
2013-01-02 15:13:00,27.2,11.4,30.23,SE,142,0.0,0.0,51,0.00,,,0.00,Wunderground v.1.13,2013-01-02 21:13:00,
2013-01-02 15:23:00,27.4,11.2,30.24,SE,142,0.0,0.0,50,0.00,,,0.00,Wunderground v.1.13,2013-01-02 21:23:00,
2013-01-02 15:33:00,28.0,11.7,30.23,SE,142,0.0,0.0,50,0.00,,,0.00,Wunderground v.1.13,2013-01-02 21:33:00,
2013-01-02 15:38:00,28.8,12.0,30.23,SE,142,0.0,0.0,49,0.00,,,0.00,Wunderground v.1.13,2013-01-02 21:38:00,
2013-01-02 15:43:00,28.8,11.6,30.24,SE,142,0.0,0.0,48,0.00,,,0.00,Wunderground v.1.13,2013-01-02 21:43:00,
2013-01-02 15:53:00,26.5,11.7,30.24,SE,142,0.0,0.0,53,0.00,,,0.00,Wunderground v.1.13,2013-01-02 21:53:00,
2013-01-02 16:03:00,25.8,11.4,30.24,SE,142,0.0,0.0,54,0.00,,,0.00,Wunderground v.1.13,2013-01-02 22:03:00,
2013-01-02 16:08:00,25.7,11.3,30.24,SE,142,0.0,0.0,54,0.00,,,0.00,Wunderground v.1.13,2013-01-02 22:08:00,
2013-01-02 16:18:00,25.7,11.3,30.23,SE,142,0.0,0.0,54,0.00,,,0.00,Wunderground v.1.13,2013-01-02 22:18:00,
2013-01-02 16:28:00,25.6,11.7,30.24,SE,142,0.0,0.0,55,0.00,,,0.00,Wunderground v.1.13,2013-01-02 22:28:00,
2013-01-02 16:33:00,25.6,12.1,30.24,SE,142,0.0,0.0,56,0.00,,,0.00,Wunderground v.1.13,2013-01-02 22:33:00,
2013-01-02 16:43:00,25.6,12.5,30.24,SE,142,0.0,0.0,57,0.00,,,0.00,Wunderground v.1.13,2013-01-02 22:43:00,
2013-01-02 16:48:00,25.4,12.7,30.24,SE,142,0.0,0.0,58,0.00,,,0.00,Wunderground v.1.13,2013-01-02 22:48:00,
2013-01-02 16:53:00,25.2,12.5,30.24,SE,142,0.0,0.0,58,0.00,,,0.00,Wunderground v.1.13,2013-01-02 22:53:00,
2013-01-02 16:58:00,24.7,12.4,30.24,SE,142,0.0,0.0,59,0.00,,,0.00,Wunderground v.1.13,2013-01-02 22:58:00,
2013-01-02 17:08:00,24.0,11.7,30.23,SE,142,0.0,0.0,59,0.00,,,0.00,Wunderground v.1.13,2013-01-02 23:08:00,
2013-01-02 17:18:00,23.7,11.4,30.24,SE,142,0.0,0.0,59,0.00,,,0.00,Wunderground v.1.13,2013-01-02 23:18:00,
2013-01-02 17:23:00,23.3,12.2,30.24,SE,142,0.0,0.0,62,0.00,,,0.00,Wunderground v.1.13,2013-01-02 23:23:00,
2013-01-02 17:28:00,23.1,12.4,30.24,SE,142,0.0,0.0,63,0.00,,,0.00,Wunderground v.1.13,2013-01-02 23:28:00,
2013-01-02 17:38:00,22.6,12.2,30.24,SE,142,0.0,0.0,64,0.00,,,0.00,Wunderground v.1.13,2013-01-02 23:38:00,
2013-01-02 17:48:00,22.3,12.0,30.24,SE,142,0.0,0.0,64,0.00,,,0.00,Wunderground v.1.13,2013-01-02 23:48:00,
2013-01-02 17:53:00,22.1,11.8,30.24,SE,142,0.0,0.0,64,0.00,,,0.00,Wunderground v.1.13,2013-01-02 23:53:00,
2013-01-02 18:03:00,21.5,11.5,30.24,SE,142,0.0,0.0,65,0.00,,,0.00,Wunderground v.1.13,2013-01-03 00:03:00,
2013-01-02 18:13:00,21.4,12.1,30.24,SE,142,0.0,0.0,67,0.00,,,0.00,Wunderground v.1.13,2013-01-03 00:13:00,
2013-01-02 18:18:00,20.9,11.7,30.24,SE,142,0.0,0.0,67,0.00,,,0.00,Wunderground v.1.13,2013-01-03 00:18:00,
2013-01-02 18:23:00,20.8,11.6,30.24,SE,142,0.0,0.0,67,0.00,,,0.00,Wunderground v.1.13,2013-01-03 00:23:00,
2013-01-02 18:38:00,21.2,10.9,30.25,SE,142,0.0,0.0,64,0.00,,,0.00,Wunderground v.1.13,2013-01-03 00:38:00,
2013-01-02 18:48:00,21.2,10.9,30.25,SE,142,0.0,0.0,64,0.00,,,0.00,Wunderground v.1.13,2013-01-03 00:48:00,
2013-01-02 18:58:00,21.0,10.7,30.25,SE,142,0.0,0.0,64,0.00,,,0.00,Wunderground v.1.13,2013-01-03 00:58:00,
2013-01-02 19:03:00,21.2,10.9,30.24,SE,142,0.0,0.0,64,0.00,,,0.00,Wunderground v.1.13,2013-01-03 01:03:00,
2013-01-02 19:13:00,20.3,11.4,30.25,SE,142,0.0,0.0,68,0.00,,,0.00,Wunderground v.1.13,2013-01-03 01:13:00,
2013-01-02 19:18:00,20.4,11.8,30.25,SE,142,0.0,0.0,69,0.00,,,0.00,Wunderground v.1.13,2013-01-03 01:18:00,
2013-01-02 19:28:00,21.3,11.7,30.25,SE,142,0.0,0.0,66,0.00,,,0.00,Wunderground v.1.13,2013-01-03 01:28:00,
2013-01-02 19:33:00,21.5,11.9,30.24,SE,142,0.0,0.0,66,0.00,,,0.00,Wunderground v.1.13,2013-01-03 01:33:00,
2013-01-02 19:43:00,22.1,12.1,30.25,SE,141,0.0,0.0,65,0.00,,,0.00,Wunderground v.1.13,2013-01-03 01:43:00,
2013-01-02 19:53:00,22.1,12.1,30.25,SE,142,0.0,0.0,65,0.00,,,0.00,Wunderground v.1.13,2013-01-03 01:53:00,
2013-01-02 19:58:00,21.8,11.8,30.25,SE,142,0.0,0.0,65,0.00,,,0.00,Wunderground v.1.13,2013-01-03 01:58:00,
2013-01-02 20:08:00,21.5,11.9,30.25,SE,142,0.0,0.0,66,0.00,,,0.00,Wunderground v.1.13,2013-01-03 02:08:00,
2013-01-02 20:18:00,22.1,12.1,30.25,SE,142,0.0,0.0,65,0.00,,,0.00,Wunderground v.1.13,2013-01-03 02:18:00,
2013-01-02 20:23:00,22.2,11.9,30.25,SE,142,0.0,0.0,64,0.00,,,0.00,Wunderground v.1.13,2013-01-03 02:23:00,
2013-01-02 20:33:00,21.9,11.9,30.25,SE,141,0.0,0.0,65,0.00,,,0.00,Wunderground v.1.13,2013-01-03 02:33:00,
2013-01-02 20:43:00,21.8,11.8,30.25,SE,142,0.0,0.0,65,0.00,,,0.00,Wunderground v.1.13,2013-01-03 02:43:00,
2013-01-02 20:53:00,20.8,11.6,30.25,SE,142,0.0,0.0,67,0.00,,,0.00,Wunderground v.1.13,2013-01-03 02:53:00,
2013-01-02 21:03:00,19.7,11.2,30.25,SE,141,0.0,0.0,69,0.00,,,0.00,Wunderground v.1.13,2013-01-03 03:03:00,
2013-01-02 21:13:00,20.5,11.9,30.25,SE,141,0.0,0.0,69,0.00,,,0.00,Wunderground v.1.13,2013-01-03 03:13:00,
2013-01-02 21:23:00,19.9,10.7,30.25,SE,142,0.0,0.0,67,0.00,,,0.00,Wunderground v.1.13,2013-01-03 03:23:00,
2013-01-02 21:48:00,21.1,11.5,30.26,SE,141,0.0,0.0,66,0.00,,,0.00,Wunderground v.1.13,2013-01-03 03:48:00,
2013-01-02 21:58:00,19.7,10.5,30.26,SE,142,0.0,0.0,67,0.00,,,0.00,Wunderground v.1.13,2013-01-03 03:58:00,
2013-01-02 22:08:00,17.3,8.9,30.26,SE,141,0.0,0.0,69,0.00,,,0.00,Wunderground v.1.13,2013-01-03 04:08:00,
2013-01-02 22:13:00,16.3,8.5,30.26,SE,141,0.0,0.0,71,0.00,,,0.00,Wunderground v.1.13,2013-01-03 04:13:00,
2013-01-02 22:23:00,17.4,10.8,30.26,SE,142,0.0,0.0,75,0.00,,,0.00,Wunderground v.1.13,2013-01-03 04:23:00,
2013-01-02 22:28:00,17.6,10.4,30.26,SE,141,0.0,0.0,73,0.00,,,0.00,Wunderground v.1.13,2013-01-03 04:28:00,
2013-01-02 22:38:00,17.8,10.6,30.26,SE,142,0.0,0.0,73,0.00,,,0.00,Wunderground v.1.13,2013-01-03 04:38:00,
2013-01-02 22:43:00,18.8,11.6,30.26,SE,142,0.0,0.0,73,0.00,,,0.00,Wunderground v.1.13,2013-01-03 04:43:00,
2013-01-02 22:53:00,19.0,11.1,30.26,SE,142,0.0,0.0,71,0.00,,,0.00,Wunderground v.1.13,2013-01-03 04:53:00,
2013-01-02 23:03:00,18.8,10.9,30.26,SE,141,0.0,0.0,71,0.00,,,0.00,Wunderground v.1.13,2013-01-03 05:03:00,
2013-01-02 23:08:00,18.4,10.9,30.26,SE,142,0.0,0.0,72,0.00,,,0.00,Wunderground v.1.13,2013-01-03 05:08:00,
2013-01-02 23:18:00,17.4,9.9,30.26,SE,141,0.0,0.0,72,0.00,,,0.00,Wunderground v.1.13,2013-01-03 05:18:00,
2013-01-02 23:23:00,17.1,9.9,30.26,SE,141,0.0,0.0,73,0.00,,,0.00,Wunderground v.1.13,2013-01-03 05:23:00,
2013-01-02 23:28:00,16.9,10.0,30.26,SE,142,0.0,0.0,74,0.00,,,0.00,Wunderground v.1.13,2013-01-03 05:28:00,
2013-01-02 23:38:00,17.3,10.7,30.26,SE,141,0.0,0.0,75,0.00,,,0.00,Wunderground v.1.13,2013-01-03 05:38:00,
2013-01-02 23:48:00,18.6,11.7,30.26,SE,142,0.0,0.0,74,0.00,,,0.00,Wunderground v.1.13,2013-01-03 05:48:00,
2013-01-02 23:53:00,18.8,11.6,30.26,SE,142,0.0,0.0,73,0.00,,,0.00,Wunderground v.1.13,2013-01-03 05:53:00,